メインページ
METAR-TAF:

METAR-TAF

空港 :

静浜基地

静浜, 日本

緯度: 34-49N, 経度: 138-18E, 海抜: 7m

現時点の気象観測

当レポートは8時間54分前の03:13(UTC)に作成
東/南東の風 6kt、東/北東からの間で変化する
気温 20°C
湿度 49%
気圧 1017 hPa
視程10km以上
高度2500ftの雲はほとんどない
高度4500ftの雲は散在している

METAR: RJNY 200313Z 12006KT 060V180 9999 FEW025 SCT045 20/09 Q1017 RMK 1CU025 3SC045 A3005

時間: 21:07 (12:07 UTC)


TAF: 見つかりません

4,000以上の空港の気象観測と天気予報(METAR報とTAF報)

利用可能な観測所は地図上に黄色い丸と赤い丸で示す。

丸の上にカーソルを重ねると観測所名を参照できる。

次にクリックすると気象観測と天気予報を参照できる。

マップの切り替え:黒色「×」印の緑ボタンをクリックして拡大、「-」印の緑ボタンをクリックして縮小、緑色の三角印をクリックして隣りの地図に切り替え


METAR-TAF: